Time;durP1;ratioP1;P1;durP2;ratioP2;P2;SDS_P1;SDS_P2;PMS_P1;PMS_P2;Temp;Humidity;BMP_temperature;BMP_pressure;BME280_temperature;BME280_humidity;BME280_pressure;Samples;Min_cycle;Max_cycle;Signal;HPM_P1;HPM_P2
2022/03/13 00:01:31;;;;;;;7.20;4.60;;;;;;;-0.22;67.21;102072.48;107738;1247;70082;-72
2022/03/13 00:04:01;;;;;;;9.60;5.50;;;;;;;-0.22;68.10;102066.14;107640;1247;72459;-70
2022/03/13 00:06:32;;;;;;;7.70;4.50;;;;;;;-0.22;65.91;102057.94;107626;1247;61585;-70
2022/03/13 00:09:04;;;;;;;8.20;4.40;;;;;;;-0.17;67.05;102056.52;107634;1247;59486;-71
2022/03/13 00:11:34;;;;;;;10.00;5.80;;;;;;;-0.24;68.28;102052.46;107662;1247;73117;-73
2022/03/13 00:14:05;;;;;;;8.40;5.40;;;;;;;-0.29;70.94;102046.15;107518;1247;70351;-72
2022/03/13 00:16:34;;;;;;;10.20;5.80;;;;;;;-0.31;71.76;102044.96;107529;1247;68769;-72
2022/03/13 00:19:06;;;;;;;10.10;5.90;;;;;;;-0.29;71.44;102043.08;107637;1246;72957;-72
2022/03/13 00:21:45;;;;;;;10.70;5.90;;;;;;;-0.25;70.76;102040.14;107714;1247;60598;-71
2022/03/13 00:24:14;;;;;;;10.90;5.90;;;;;;;-0.23;71.48;102039.61;107648;1246;61736;-71
2022/03/13 00:26:43;;;;;;;10.40;5.60;;;;;;;-0.19;68.57;102037.70;107607;1247;73081;-71
2022/03/13 00:29:12;;;;;;;12.60;5.80;;;;;;;-0.20;70.74;102035.48;107574;1246;72125;-71
2022/03/13 00:31:41;;;;;;;9.70;5.30;;;;;;;-0.18;70.50;102029.48;107503;1247;69810;-72
2022/03/13 00:34:14;;;;;;;11.40;5.80;;;;;;;-0.18;68.85;102027.42;107623;1246;73362;-71
2022/03/13 00:36:45;;;;;;;9.90;4.90;;;;;;;-0.20;68.76;102025.90;107474;1247;60849;-73
2022/03/13 00:39:15;;;;;;;7.20;4.10;;;;;;;-0.16;69.17;102023.81;107720;1247;61127;-70
2022/03/13 00:41:46;;;;;;;8.20;4.30;;;;;;;-0.23;69.66;102017.88;107632;1247;72769;-71
2022/03/13 00:44:15;;;;;;;10.60;5.80;;;;;;;-0.33;69.47;102014.86;107645;1246;72329;-71
2022/03/13 00:46:45;;;;;;;11.70;5.60;;;;;;;-0.42;71.21;102014.74;107602;1247;69202;-70
2022/03/13 00:49:14;;;;;;;9.60;6.00;;;;;;;-0.41;68.79;102016.44;107557;1246;71976;-72
2022/03/13 00:51:44;;;;;;;10.90;6.00;;;;;;;-0.41;69.22;102014.23;107443;1247;59704;-70
2022/03/13 00:54:13;;;;;;;10.30;5.70;;;;;;;-0.40;68.96;102012.16;107506;1247;59575;-72
2022/03/13 00:56:42;;;;;;;11.30;6.20;;;;;;;-0.40;68.98;102010.61;107431;1247;72544;-70
2022/03/13 00:59:12;;;;;;;11.90;6.80;;;;;;;-0.45;72.46;102008.94;107491;1247;72774;-71
2022/03/13 01:01:40;;;;;;;12.40;5.60;;;;;;;-0.36;71.43;102003.74;107450;1247;71944;-71
2022/03/13 01:04:14;;;;;;;11.20;6.60;;;;;;;-0.35;70.07;102001.52;107396;1247;72651;-70
2022/03/13 01:06:46;;;;;;;13.50;7.20;;;;;;;-0.41;69.62;101998.46;107447;1246;59537;-70
2022/03/13 01:09:16;;;;;;;11.30;5.60;;;;;;;-0.41;69.91;101999.51;107510;1247;60391;-71
2022/03/13 01:11:45;;;;;;;11.60;5.40;;;;;;;-0.40;70.10;101998.13;107554;1247;72594;-70
2022/03/13 01:14:18;;;;;;;10.00;5.90;;;;;;;-0.43;70.29;101996.59;107512;1246;72583;-70
2022/03/13 01:17:03;;;;;;;11.60;6.00;;;;;;;-0.48;70.14;101993.21;107379;1247;67958;-71
2022/03/13 01:19:33;;;;;;;8.80;5.70;;;;;;;-0.49;70.55;101995.95;107420;1246;72022;-70
2022/03/13 01:22:03;;;;;;;13.30;6.60;;;;;;;-0.54;70.52;101997.87;107394;1247;61659;-71
2022/03/13 01:24:44;;;;;;;10.20;6.80;;;;;;;-0.59;70.68;101994.65;107512;1246;63168;-70
2022/03/13 01:27:15;;;;;;;13.60;8.10;;;;;;;-0.59;70.10;101997.21;107480;1247;75382;-71
2022/03/13 01:29:45;;;;;;;7.40;4.30;;;;;;;-0.57;69.63;101994.29;107387;1246;72645;-72
2022/03/13 01:32:17;;;;;;;9.90;5.00;;;;;;;-0.46;70.98;101988.58;107652;1244;67958;-72
2022/03/13 01:34:50;;;;;;;11.20;6.50;;;;;;;-0.50;71.04;101990.65;107499;1247;71978;-73
2022/03/13 01:37:27;;;;;;;8.80;5.00;;;;;;;-0.56;70.53;101987.61;107643;1247;60510;-74
2022/03/13 01:40:04;;;;;;;15.60;6.50;;;;;;;-0.55;71.25;101990.69;107548;1246;60912;-73
2022/03/13 01:42:33;;;;;;;13.50;8.40;;;;;;;-0.60;71.45;101987.80;107477;1247;71771;-73
2022/03/13 01:45:04;;;;;;;12.20;7.40;;;;;;;-0.62;72.15;101990.73;107411;1247;69725;-72
2022/03/13 01:47:33;;;;;;;12.20;7.90;;;;;;;-0.52;71.27;101983.48;107460;1247;67988;-72
2022/03/13 01:50:09;;;;;;;14.30;8.10;;;;;;;-0.55;71.09;101980.41;107599;1247;73533;-72
2022/03/13 01:52:41;;;;;;;11.00;7.50;;;;;;;-0.56;71.01;101984.37;107667;1247;59649;-74
2022/03/13 01:55:11;;;;;;;13.90;8.80;;;;;;;-0.55;70.92;101985.73;107829;1247;60280;-71
2022/03/13 01:57:40;;;;;;;12.60;8.70;;;;;;;-0.53;72.01;101982.63;107726;1247;74117;-71
2022/03/13 02:00:10;;;;;;;13.40;8.70;;;;;;;-0.48;71.79;101986.02;107628;1246;70295;-74
2022/03/13 02:02:47;;;;;;;14.70;8.00;;;;;;;-0.45;71.52;101989.08;107658;1247;67917;-72
2022/03/13 02:05:36;;;;;;;13.10;8.60;;;;;;;-0.39;71.49;101991.61;107442;1247;72094;-70
2022/03/13 02:08:22;;;;;;;13.50;8.20;;;;;;;-0.36;71.17;101989.54;107615;1247;59762;-74
2022/03/13 02:10:51;;;;;;;13.60;7.70;;;;;;;-0.29;69.28;101983.32;107588;1247;59509;-74
2022/03/13 02:13:21;;;;;;;14.50;7.70;;;;;;;-0.31;69.86;101982.14;107667;1246;71661;-73
2022/03/13 02:15:53;;;;;;;15.10;8.30;;;;;;;-0.30;69.59;101984.69;107655;1246;72274;-74
2022/03/13 02:18:22;;;;;;;14.30;7.40;;;;;;;-0.28;68.72;101976.47;107690;1246;68361;-70
2022/03/13 02:20:51;;;;;;;10.40;6.10;;;;;;;-0.31;69.42;101976.48;107739;1246;71648;-70
2022/03/13 02:23:30;;;;;;;10.50;5.80;;;;;;;-0.34;69.57;101970.70;107753;1246;59548;-70
2022/03/13 02:26:02;;;;;;;11.90;6.90;;;;;;;-0.35;69.37;101972.58;107727;1247;61626;-71
2022/03/13 02:28:35;;;;;;;16.30;7.70;;;;;;;-0.35;69.50;101967.27;107671;1246;72343;-69
2022/03/13 02:31:13;;;;;;;11.00;5.90;;;;;;;-0.37;70.76;101970.38;107635;1247;70759;-66
2022/03/13 02:33:42;;;;;;;9.80;5.80;;;;;;;-0.30;69.10;101967.58;107586;1246;70770;-71
2022/03/13 02:36:31;;;;;;;11.60;7.00;;;;;;;-0.31;69.18;101964.85;107637;1247;74998;-69
2022/03/13 02:39:02;;;;;;;10.90;6.20;;;;;;;-0.41;68.88;101966.29;107401;1246;60946;-68
2022/03/13 02:41:32;;;;;;;10.20;6.60;;;;;;;-0.41;69.21;101966.63;107679;1246;61066;-71
2022/03/13 02:44:01;;;;;;;13.90;7.00;;;;;;;-0.46;68.91;101966.85;107523;1247;75452;-69
2022/03/13 02:46:48;;;;;;;12.10;7.60;;;;;;;-0.49;68.91;101967.39;107410;1247;72628;-72
2022/03/13 02:49:20;;;;;;;16.00;9.00;;;;;;;-0.46;69.65;101970.95;107679;1246;70054;-72
2022/03/13 02:51:54;;;;;;;15.20;8.80;;;;;;;-0.43;69.75;101969.56;107679;1244;70459;-70
2022/03/13 02:54:24;;;;;;;15.30;8.20;;;;;;;-0.41;69.56;101966.63;107631;1245;58960;-68
2022/03/13 02:56:53;;;;;;;14.10;8.50;;;;;;;-0.39;69.46;101967.14;107604;1246;62523;-69
2022/03/13 02:59:22;;;;;;;12.60;7.80;;;;;;;-0.38;68.60;101969.17;107678;1245;75101;-72
2022/03/13 03:01:51;;;;;;;14.60;8.10;;;;;;;-0.40;67.83;101967.47;107656;1245;72065;-71
2022/03/13 03:04:24;;;;;;;13.50;8.40;;;;;;;-0.41;68.06;101965.44;107683;1246;70920;-71
2022/03/13 03:07:04;;;;;;;14.00;8.30;;;;;;;-0.44;68.14;101966.32;107558;1246;74434;-71
2022/03/13 03:09:34;;;;;;;12.80;7.40;;;;;;;-0.45;68.80;101965.47;107545;1247;61986;-70
2022/03/13 03:12:05;;;;;;;14.10;7.70;;;;;;;-0.43;68.41;101964.08;107504;1247;58974;-71
2022/03/13 03:14:35;;;;;;;21.10;14.70;;;;;;;-0.40;68.68;101965.08;107572;1247;74454;-71
2022/03/13 03:17:04;;;;;;;13.20;8.70;;;;;;;-0.41;69.18;101964.25;107649;1247;71822;-72
2022/03/13 03:19:33;;;;;;;12.30;8.00;;;;;;;-0.42;69.69;101965.27;107698;1247;68448;-72
2022/03/13 03:22:03;;;;;;;15.70;8.10;;;;;;;-0.37;69.11;101958.73;107698;1245;74338;-72
2022/03/13 03:24:32;;;;;;;26.10;8.70;;;;;;;-0.36;69.32;101961.46;107722;1247;59632;-70
2022/03/13 03:27:02;;;;;;;18.90;8.00;;;;;;;-0.36;69.53;101959.92;107778;1245;58927;-70
2022/03/13 03:29:31;;;;;;;16.50;8.30;;;;;;;-0.38;69.62;101961.48;107559;1246;74426;-71
2022/03/13 03:32:02;;;;;;;12.20;6.60;;;;;;;-0.33;69.33;101959.73;107646;1246;71101;-69
2022/03/13 03:34:31;;;;;;;13.20;7.90;;;;;;;-0.25;68.14;101953.34;107684;1246;68712;-70
2022/03/13 03:37:02;;;;;;;14.50;8.20;;;;;;;-0.27;68.63;101962.44;107580;1246;72782;-70
2022/03/13 03:39:32;;;;;;;17.60;8.90;;;;;;;-0.27;68.99;101955.58;107665;1246;59574;-69
2022/03/13 03:42:02;;;;;;;14.30;7.90;;;;;;;-0.25;68.81;101959.67;107409;1247;60452;-69
2022/03/13 03:44:31;;;;;;;13.70;8.10;;;;;;;-0.24;68.81;101962.05;107619;1247;72980;-70
2022/03/13 03:47:00;;;;;;;14.00;8.10;;;;;;;-0.30;68.82;101965.70;107510;1247;70346;-69
2022/03/13 03:49:29;;;;;;;15.50;8.00;;;;;;;-0.28;67.77;101976.81;107682;1245;71149;-72
2022/03/13 03:51:58;;;;;;;12.40;7.40;;;;;;;-0.32;68.50;101970.50;107622;1246;73813;-70
2022/03/13 03:54:27;;;;;;;14.40;8.10;;;;;;;-0.28;66.70;101969.28;107584;1247;59482;-71
2022/03/13 03:56:56;;;;;;;12.00;6.90;;;;;;;-0.11;63.60;101975.98;107526;1247;60663;-71
2022/03/13 03:59:25;;;;;;;15.70;7.60;;;;;;;0.01;61.41;101976.76;107372;1247;74744;-70
2022/03/13 04:01:54;;;;;;;14.40;7.70;;;;;;;0.08;60.94;101977.04;107387;1246;73298;-70
2022/03/13 04:04:24;;;;;;;15.60;8.10;;;;;;;0.10;59.64;101977.88;107409;1246;70633;-71
2022/03/13 04:06:53;;;;;;;9.30;5.20;;;;;;;0.13;60.25;101980.59;107339;1246;72946;-70
2022/03/13 04:09:22;;;;;;;13.90;7.10;;;;;;;0.18;57.53;101981.23;107385;1247;59611;-72
2022/03/13 04:11:52;;;;;;;17.40;7.80;;;;;;;0.17;58.17;101975.25;107339;1246;61270;-72
2022/03/13 04:14:21;;;;;;;15.40;8.30;;;;;;;0.22;58.00;101983.25;107363;1246;73137;-70
2022/03/13 04:16:51;;;;;;;17.10;8.30;;;;;;;0.23;58.57;101985.30;107310;1247;69045;-71
2022/03/13 04:19:21;;;;;;;16.50;9.40;;;;;;;0.26;57.76;101982.02;107402;1246;70139;-69
2022/03/13 04:21:50;;;;;;;14.40;8.40;;;;;;;0.27;58.03;101980.64;107428;1246;72356;-71
2022/03/13 04:24:19;;;;;;;17.10;9.00;;;;;;;0.25;57.17;101976.89;107320;1247;61546;-71
2022/03/13 04:26:49;;;;;;;15.50;8.60;;;;;;;0.26;55.81;101987.33;107340;1247;58440;-71
2022/03/13 04:29:18;;;;;;;16.40;9.90;;;;;;;0.28;55.38;101991.09;107387;1246;74155;-71
2022/03/13 04:31:48;;;;;;;15.50;8.30;;;;;;;0.25;55.44;101993.84;107388;1246;72083;-71
2022/03/13 04:34:17;;;;;;;16.60;8.90;;;;;;;0.30;55.84;101989.52;107441;1246;67380;-72
2022/03/13 04:36:46;;;;;;;14.20;8.60;;;;;;;0.25;56.39;101993.17;107518;1246;71254;-73
2022/03/13 04:39:16;;;;;;;16.50;9.20;;;;;;;0.25;56.53;101990.59;107469;1247;59673;-75
2022/03/13 04:41:45;;;;;;;16.60;9.20;;;;;;;0.23;56.65;101990.78;107260;1247;61138;-74
2022/03/13 04:44:16;;;;;;;14.70;8.40;;;;;;;0.23;56.68;101989.23;107332;1246;74208;-74
2022/03/13 04:46:45;;;;;;;16.30;7.90;;;;;;;0.20;56.97;101990.46;107453;1246;69610;-73
2022/03/13 04:49:14;;;;;;;18.10;9.50;;;;;;;0.13;57.02;101996.36;107474;1246;68569;-74
2022/03/13 04:51:44;;;;;;;18.10;9.80;;;;;;;0.12;56.89;101993.11;107323;1246;73856;-72
2022/03/13 04:54:13;;;;;;;17.30;9.00;;;;;;;0.06;56.91;101998.98;107405;1246;60079;-72
2022/03/13 04:56:42;;;;;;;16.90;9.40;;;;;;;0.01;57.40;101998.86;107278;1246;61723;-71
2022/03/13 04:59:12;;;;;;;22.20;11.50;;;;;;;-0.04;57.68;101998.89;107414;1247;74626;-75
2022/03/13 05:01:41;;;;;;;20.80;10.50;;;;;;;-0.09;58.03;102001.33;107516;1246;72855;-74
2022/03/13 05:04:15;;;;;;;21.40;10.90;;;;;;;-0.15;58.50;102003.61;107539;1246;71398;-73
2022/03/13 05:06:45;;;;;;;21.30;11.70;;;;;;;-0.25;59.26;102009.33;107377;1247;72376;-72
2022/03/13 05:09:14;;;;;;;19.20;9.10;;;;;;;-0.26;59.14;102010.36;107488;1246;59789;-73
2022/03/13 05:11:43;;;;;;;24.20;11.90;;;;;;;-0.33;59.58;102014.69;107522;1246;61025;-71
2022/03/13 05:14:12;;;;;;;19.40;9.40;;;;;;;-0.34;59.80;102012.28;107552;1246;75910;-74
2022/03/13 05:16:41;;;;;;;16.70;10.10;;;;;;;-0.34;60.33;102018.45;107581;1246;71779;-72
2022/03/13 05:19:10;;;;;;;21.00;10.00;;;;;;;-0.34;60.59;102026.33;107372;1246;69082;-72
2022/03/13 05:21:41;;;;;;;21.20;10.80;;;;;;;-0.35;61.67;102025.14;107413;1247;73992;-71
2022/03/13 05:24:10;;;;;;;15.00;8.70;;;;;;;-0.35;62.36;102031.98;107540;1246;59647;-71
2022/03/13 05:26:39;;;;;;;16.40;8.20;;;;;;;-0.37;62.77;102028.91;107614;1247;59943;-72
2022/03/13 05:29:09;;;;;;;18.60;8.80;;;;;;;-0.34;63.12;102025.65;107589;1246;74790;-72
2022/03/13 05:31:39;;;;;;;7.80;4.60;;;;;;;-0.28;63.67;102025.78;107676;1246;71502;-71
2022/03/13 05:34:14;;;;;;;18.30;8.50;;;;;;;-0.23;63.77;102024.38;107387;1247;71350;-71
2022/03/13 05:36:43;;;;;;;15.60;7.50;;;;;;;-0.17;63.69;102026.73;107496;1246;74401;-73
2022/03/13 05:39:13;;;;;;;12.50;7.30;;;;;;;-0.14;64.40;102027.92;107582;1246;59580;-76
2022/03/13 05:41:42;;;;;;;10.00;5.00;;;;;;;-0.13;64.71;102030.81;107730;1246;59701;-73
2022/03/13 05:44:13;;;;;;;6.70;3.90;;;;;;;-0.09;64.52;102036.45;107576;1246;74053;-73
2022/03/13 05:46:42;;;;;;;14.10;6.00;;;;;;;-0.10;64.96;102039.01;107630;1245;72767;-73
2022/03/13 05:49:11;;;;;;;12.10;7.00;;;;;;;-0.10;65.26;102035.42;107411;1247;69275;-73
2022/03/13 05:51:43;;;;;;;11.20;5.50;;;;;;;-0.07;65.49;102038.14;107687;1246;72850;-73
2022/03/13 05:54:13;;;;;;;12.70;7.30;;;;;;;-0.05;65.81;102041.37;107776;1245;60883;-76
2022/03/13 05:56:42;;;;;;;13.30;6.10;;;;;;;0.02;65.79;102040.80;107831;1245;59667;-78
2022/03/13 05:59:12;;;;;;;12.10;6.90;;;;;;;0.11;66.33;102047.42;108037;1246;74486;-74
2022/03/13 06:01:41;;;;;;;11.90;7.00;;;;;;;0.13;66.06;102052.38;107986;1245;72249;-75
2022/03/13 06:04:10;;;;;;;10.70;6.60;;;;;;;0.14;66.21;102046.02;107979;1246;67337;-73
2022/03/13 06:06:40;;;;;;;13.80;7.20;;;;;;;0.28;65.71;102045.06;107773;1246;73215;-73
2022/03/13 06:09:09;;;;;;;10.30;6.20;;;;;;;0.31;65.78;102048.29;107617;1246;61208;-73
2022/03/13 06:11:38;;;;;;;9.60;5.50;;;;;;;0.41;65.66;102050.60;107351;1245;61632;-72
2022/03/13 06:14:07;;;;;;;12.70;6.90;;;;;;;0.50;65.36;102048.80;107319;1246;75319;-74
2022/03/13 06:16:36;;;;;;;11.70;6.60;;;;;;;0.60;65.33;102055.58;107767;1246;73081;-70
2022/03/13 06:19:05;;;;;;;9.80;5.80;;;;;;;0.68;64.39;102056.01;107209;1244;506652;-70
2022/03/13 06:21:34;;;;;;;9.60;5.20;;;;;;;0.75;63.89;102058.50;107387;1247;71612;-71
2022/03/13 06:24:04;;;;;;;14.30;7.20;;;;;;;0.84;62.93;102058.06;108028;1244;60453;-72
2022/03/13 06:26:34;;;;;;;13.90;6.90;;;;;;;0.91;62.69;102059.71;107422;1247;60254;-73
2022/03/13 06:29:05;;;;;;;14.80;7.10;;;;;;;1.00;61.99;102063.90;107908;1246;74485;-73
2022/03/13 06:31:36;;;;;;;14.30;6.80;;;;;;;1.11;61.46;102064.46;107613;1246;69859;-76
2022/03/13 06:34:05;;;;;;;12.40;7.50;;;;;;;1.20;61.18;102062.98;107513;1247;68742;-75
2022/03/13 06:36:38;;;;;;;17.30;8.10;;;;;;;1.28;60.45;102064.78;107887;1246;73732;-73
2022/03/13 06:39:07;;;;;;;12.40;6.90;;;;;;;1.34;60.15;102062.64;107201;1247;59535;-75
2022/03/13 06:41:38;;;;;;;15.40;7.90;;;;;;;1.46;59.89;102066.60;107895;1246;58991;-73
2022/03/13 06:44:08;;;;;;;14.70;7.30;;;;;;;1.58;59.25;102070.40;107844;1246;74509;-74
2022/03/13 06:46:37;;;;;;;13.60;7.00;;;;;;;1.65;59.09;102067.05;107736;1246;73106;-80
2022/03/13 06:49:05;;;;;;;11.60;6.90;;;;;;;1.74;58.49;102062.27;107329;1246;70991;-71
2022/03/13 06:51:40;;;;;;;13.80;7.90;;;;;;;1.88;57.94;102061.21;107481;1246;72898;-71
2022/03/13 06:54:11;;;;;;;13.90;8.30;;;;;;;2.00;57.84;102063.10;107415;1246;58931;-72
2022/03/13 06:56:40;;;;;;;15.20;7.80;;;;;;;2.06;57.37;102058.72;107875;1246;61350;-76
2022/03/13 06:59:09;;;;;;;10.60;6.70;;;;;;;2.16;57.08;102061.14;107734;1246;74852;-74
2022/03/13 07:01:38;;;;;;;13.20;7.10;;;;;;;2.22;55.55;102058.98;107873;1246;73100;-77
2022/03/13 07:04:07;;;;;;;12.20;6.90;;;;;;;2.20;56.19;102067.27;107742;1246;68421;-76
2022/03/13 07:06:36;;;;;;;16.80;7.90;;;;;;;2.30;55.52;102073.64;107513;1246;71384;-74
2022/03/13 07:09:05;;;;;;;14.40;7.80;;;;;;;2.15;54.71;102076.10;107599;1246;59653;-73
2022/03/13 07:11:34;;;;;;;12.60;7.30;;;;;;;2.19;54.92;102078.96;107360;1246;58953;-75
2022/03/13 07:14:08;;;;;;;10.50;6.50;;;;;;;2.23;55.01;102082.34;107381;1246;73210;-72
2022/03/13 07:16:38;;;;;;;13.60;7.80;;;;;;;2.22;54.58;102083.89;107089;1247;72658;-69
2022/03/13 07:19:07;;;;;;;13.50;7.50;;;;;;;2.27;55.08;102082.77;107469;1246;71147;-73
2022/03/13 07:21:38;;;;;;;12.50;7.40;;;;;;;2.29;53.98;102081.04;107634;1246;75982;-72
2022/03/13 07:24:07;;;;;;;14.10;7.60;;;;;;;2.31;53.31;102079.80;107329;1246;60515;-73
2022/03/13 07:26:36;;;;;;;14.40;7.70;;;;;;;2.37;52.96;102081.09;107340;1246;60896;-72
2022/03/13 07:29:05;;;;;;;19.30;8.90;;;;;;;2.38;52.34;102084.16;107403;1246;72862;-73
2022/03/13 07:31:35;;;;;;;11.20;6.90;;;;;;;2.28;51.76;102086.88;107585;1246;70637;-73
2022/03/13 07:34:04;;;;;;;12.70;7.30;;;;;;;2.32;51.92;102084.77;107670;1245;68727;-72
2022/03/13 07:36:34;;;;;;;14.10;7.90;;;;;;;2.35;51.65;102084.89;107712;1246;72398;-73
2022/03/13 07:39:04;;;;;;;17.20;9.20;;;;;;;2.34;51.99;102087.66;107460;1245;60237;-72
2022/03/13 07:41:33;;;;;;;13.40;7.20;;;;;;;2.39;51.46;102093.27;107702;1246;60975;-73
2022/03/13 07:44:04;;;;;;;15.50;8.90;;;;;;;2.50;50.75;102093.25;107514;1246;75965;-74
2022/03/13 07:46:33;;;;;;;15.20;7.80;;;;;;;2.55;50.88;102094.02;107483;1246;70504;-73
2022/03/13 07:49:03;;;;;;;16.60;8.20;;;;;;;2.61;49.37;102099.94;107500;1246;69623;-75
2022/03/13 07:51:35;;;;;;;15.70;8.40;;;;;;;2.65;48.93;102100.55;107704;1246;72019;-71
2022/03/13 07:54:04;;;;;;;11.20;7.60;;;;;;;2.63;47.97;102101.61;107784;1246;59692;-75
2022/03/13 07:56:33;;;;;;;15.40;8.10;;;;;;;2.69;47.32;102104.79;107656;1246;59546;-71
2022/03/13 07:59:02;;;;;;;13.60;7.70;;;;;;;2.71;46.69;102105.45;107281;1244;73529;-77
2022/03/13 08:01:32;;;;;;;14.00;7.10;;;;;;;2.76;46.99;102104.13;107459;1246;72732;-72
2022/03/13 08:04:07;;;;;;;14.40;7.60;;;;;;;2.74;47.24;102106.94;107321;1246;70098;-75
2022/03/13 08:06:39;;;;;;;13.60;7.20;;;;;;;2.77;46.10;102111.87;107352;1246;74176;-72
2022/03/13 08:09:08;;;;;;;13.10;7.80;;;;;;;2.72;45.59;102113.15;107262;1246;60874;-75
2022/03/13 08:11:38;;;;;;;14.40;7.70;;;;;;;2.83;46.10;102112.63;107267;1247;60154;-71
2022/03/13 08:14:07;;;;;;;12.40;7.90;;;;;;;2.99;45.59;102119.75;107493;1246;73028;-70
2022/03/13 08:16:36;;;;;;;15.30;8.40;;;;;;;3.00;44.89;102116.11;107362;1246;74475;-70
2022/03/13 08:19:10;;;;;;;17.30;9.30;;;;;;;3.05;45.17;102118.60;107468;1246;69429;-70
2022/03/13 08:21:39;;;;;;;13.30;8.00;;;;;;;3.04;44.25;102114.31;107334;1246;72508;-72
2022/03/13 08:24:08;;;;;;;14.60;8.60;;;;;;;3.10;44.81;102117.45;107295;1245;59668;-71
2022/03/13 08:26:38;;;;;;;14.80;8.10;;;;;;;3.25;44.68;102116.14;107546;1246;61308;-70
2022/03/13 08:29:09;;;;;;;13.70;8.00;;;;;;;3.30;43.79;102119.66;107463;1246;76326;-73
2022/03/13 08:31:38;;;;;;;18.60;8.80;;;;;;;3.42;43.38;102119.77;107442;1246;72857;-71
2022/03/13 08:34:08;;;;;;;15.50;8.10;;;;;;;3.56;43.31;102125.16;107581;1246;70885;-71
2022/03/13 08:36:40;;;;;;;13.00;7.70;;;;;;;3.62;42.95;102122.80;107199;1247;72798;-70
2022/03/13 08:39:09;;;;;;;13.70;7.50;;;;;;;3.71;42.34;102116.56;107495;1246;60329;-71
2022/03/13 08:41:39;;;;;;;17.60;8.30;;;;;;;3.94;42.48;102118.34;107478;1246;59561;-73
2022/03/13 08:44:08;;;;;;;14.00;8.10;;;;;;;4.08;41.11;102119.55;107496;1246;74465;-72
2022/03/13 08:46:38;;;;;;;13.20;6.80;;;;;;;4.06;41.02;102118.20;107600;1246;70418;-73
2022/03/13 08:49:09;;;;;;;14.50;8.20;;;;;;;4.19;40.80;102114.30;107712;1246;69576;-73
2022/03/13 08:51:38;;;;;;;14.80;8.20;;;;;;;4.17;40.74;102116.23;107397;1246;74592;-72
2022/03/13 08:54:08;;;;;;;13.90;7.50;;;;;;;4.29;40.12;102115.61;107101;1246;60029;-72
2022/03/13 08:56:37;;;;;;;12.30;7.60;;;;;;;4.46;39.98;102111.23;107588;1246;61203;-72
2022/03/13 08:59:06;;;;;;;14.90;7.90;;;;;;;4.48;39.14;102117.76;107636;1244;73308;-74
2022/03/13 09:01:35;;;;;;;15.80;8.50;;;;;;;4.59;38.28;102118.34;107670;1246;73192;-70
2022/03/13 09:04:04;;;;;;;15.40;8.70;;;;;;;4.73;37.88;102115.04;107577;1246;69326;-70
2022/03/13 09:06:33;;;;;;;14.10;7.90;;;;;;;4.95;38.32;102120.18;107377;1246;73903;-71
2022/03/13 09:09:02;;;;;;;10.60;7.00;;;;;;;4.93;37.14;102121.41;107435;1246;60845;-72
2022/03/13 09:11:34;;;;;;;11.20;6.60;;;;;;;4.94;37.70;102124.34;107390;1246;61289;-71
2022/03/13 09:14:04;;;;;;;16.00;8.60;;;;;;;5.04;36.91;102124.08;107834;1245;75454;-72
2022/03/13 09:16:37;;;;;;;12.30;8.20;;;;;;;5.08;36.86;102123.77;107603;1246;71312;-73
2022/03/13 09:19:07;;;;;;;14.10;8.70;;;;;;;5.07;35.99;102127.79;107643;1246;68580;-72
2022/03/13 09:21:40;;;;;;;14.70;8.80;;;;;;;5.17;36.97;102131.30;107443;1246;72953;-74
2022/03/13 09:24:10;;;;;;;14.30;8.10;;;;;;;5.34;36.74;102128.77;107290;1247;60926;-71
2022/03/13 09:26:45;;;;;;;13.90;7.70;;;;;;;5.35;36.07;102126.67;107731;1246;60496;-74
2022/03/13 09:29:14;;;;;;;13.30;7.30;;;;;;;5.55;35.70;102125.42;107772;1246;72843;-74
2022/03/13 09:31:43;;;;;;;13.90;7.60;;;;;;;5.41;34.94;102126.51;107679;1246;70390;-74
2022/03/13 09:34:12;;;;;;;16.20;8.80;;;;;;;5.30;35.69;102128.20;107814;1246;67925;-72
2022/03/13 09:36:43;;;;;;;13.00;8.80;;;;;;;5.45;36.15;102131.21;107399;1246;73951;-72
2022/03/13 09:39:12;;;;;;;10.60;7.60;;;;;;;5.59;35.54;102126.69;107218;1246;61110;-72
2022/03/13 09:41:41;;;;;;;13.40;8.10;;;;;;;5.70;35.16;102137.77;107313;1246;61601;-74
2022/03/13 09:44:11;;;;;;;11.50;7.50;;;;;;;5.73;35.13;102131.80;107637;1246;73629;-73
2022/03/13 09:46:39;;;;;;;13.10;8.30;;;;;;;5.67;33.98;102129.73;107607;1246;72259;-76
2022/03/13 09:49:08;;;;;;;12.70;8.60;;;;;;;5.85;33.41;102132.48;107880;1246;69496;-76
2022/03/13 09:51:37;;;;;;;13.90;8.30;;;;;;;5.68;33.39;102133.68;107548;1246;71311;-76
2022/03/13 09:54:06;;;;;;;14.10;8.70;;;;;;;5.96;33.94;102133.39;107638;1246;59722;-76
2022/03/13 09:56:38;;;;;;;12.50;8.10;;;;;;;6.12;34.75;102132.02;107592;1246;60881;-76
2022/03/13 09:59:07;;;;;;;11.90;8.00;;;;;;;6.19;33.63;102130.96;107490;1246;74007;-76
2022/03/13 10:01:37;;;;;;;13.10;8.20;;;;;;;6.33;33.88;102130.00;107571;1246;72221;-75
2022/03/13 10:04:06;;;;;;;12.70;8.10;;;;;;;6.12;33.38;102134.97;107683;1246;71500;-76
2022/03/13 10:07:07;;;;;;;12.40;8.10;;;;;;;6.12;33.67;102135.32;107667;1246;74402;-74
2022/03/13 10:09:40;;;;;;;15.50;9.40;;;;;;;6.10;33.35;102141.62;108938;1246;59564;-75
2022/03/13 10:12:18;;;;;;;14.00;9.80;;;;;;;5.76;33.62;102141.92;107692;1246;59757;-75
2022/03/13 10:15:08;;;;;;;14.60;8.90;;;;;;;5.61;33.70;102142.70;107538;1246;72853;-76
2022/03/13 10:17:38;;;;;;;12.70;8.50;;;;;;;5.81;33.54;102140.56;107488;1246;70490;-74
2022/03/13 10:20:27;;;;;;;12.30;8.20;;;;;;;5.92;33.07;102137.99;107566;1246;69112;-74
2022/03/13 10:23:01;;;;;;;15.00;8.70;;;;;;;6.12;32.98;102129.26;107510;1246;71178;-74
2022/03/13 10:25:38;;;;;;;13.80;10.30;;;;;;;6.31;32.81;102136.63;107582;1246;60845;-73
2022/03/13 10:28:28;;;;;;;13.40;8.30;;;;;;;6.35;32.10;102133.91;107649;1246;61990;-73
2022/03/13 10:31:00;;;;;;;11.50;7.60;;;;;;;6.57;32.58;102130.42;107401;1247;73182;-74
2022/03/13 10:33:54;;;;;;;12.00;7.90;;;;;;;6.81;31.91;102130.47;107702;1246;69486;-81
2022/03/13 10:36:36;;;;;;;15.80;9.30;;;;;;;6.78;31.83;102132.63;107876;1246;71536;-73
2022/03/13 10:39:17;;;;;;;14.20;8.80;;;;;;;6.78;32.38;102135.94;107801;1246;74677;-72
2022/03/13 10:41:51;;;;;;;13.00;9.60;;;;;;;6.65;31.62;102133.80;107645;1246;60444;-72
2022/03/13 10:44:25;;;;;;;13.90;8.60;;;;;;;6.91;31.81;102135.83;107340;1246;61054;-71
2022/03/13 10:46:57;;;;;;;11.90;7.80;;;;;;;7.06;32.08;102137.39;107363;1246;74339;-70
2022/03/13 10:49:45;;;;;;;11.60;7.90;;;;;;;7.47;32.31;102125.73;107425;1246;71154;-70
2022/03/13 10:52:29;;;;;;;16.70;8.80;;;;;;;7.67;30.91;102121.48;107370;1246;69524;-70
2022/03/13 10:55:18;;;;;;;15.10;8.70;;;;;;;8.06;31.19;102124.83;107191;1246;74305;-75
2022/03/13 10:57:57;;;;;;;11.20;8.40;;;;;;;7.85;29.59;102129.63;107504;1246;60059;-71
2022/03/13 11:00:27;;;;;;;14.40;9.20;;;;;;;7.99;30.35;102132.75;107490;1246;60239;-71
2022/03/13 11:03:16;;;;;;;14.30;7.80;;;;;;;8.02;30.61;102133.48;107563;1244;73449;-70
2022/03/13 11:05:49;;;;;;;15.60;9.60;;;;;;;7.35;30.62;102135.69;107699;1246;70157;-75
2022/03/13 11:08:18;;;;;;;11.40;8.00;;;;;;;7.09;31.28;102137.66;107984;1246;71564;-71
2022/03/13 11:10:48;;;;;;;13.40;8.80;;;;;;;7.38;31.29;102134.52;108002;1246;73172;-70
2022/03/13 11:13:20;;;;;;;10.30;7.50;;;;;;;7.23;31.59;102135.58;107893;1246;59557;-71
2022/03/13 11:15:49;;;;;;;12.50;8.50;;;;;;;7.22;31.84;102136.32;107855;1245;61322;-71
2022/03/13 11:18:23;;;;;;;14.00;9.40;;;;;;;6.97;31.58;102138.08;107810;1246;74116;-71
2022/03/13 11:20:51;;;;;;;;;;;;;;;6.79;31.67;102144.39;107718;1246;73687;-73
2022/03/13 11:23:23;;;;;;;14.70;9.50;;;;;;;6.50;31.94;102142.24;107519;1246;68610;-72
2022/03/13 11:25:55;;;;;;;14.70;9.50;;;;;;;6.26;32.77;102140.78;107479;1246;74046;-74
2022/03/13 11:28:28;;;;;;;15.10;8.70;;;;;;;5.99;32.72;102146.24;107691;1246;60971;-71
2022/03/13 11:30:58;;;;;;;14.50;8.90;;;;;;;5.93;33.34;102146.95;107951;1246;60783;-70
2022/03/13 11:33:41;;;;;;;12.50;7.80;;;;;;;6.06;33.19;102148.30;107624;1244;71684;-70